Time;durP1;ratioP1;P1;durP2;ratioP2;P2;SDS_P1;SDS_P2;PMS_P1;PMS_P2;Temp;Humidity;BMP_temperature;BMP_pressure;BME280_temperature;BME280_humidity;BME280_pressure;Samples;Min_cycle;Max_cycle;Signal;HPM_P1;HPM_P2
2023/08/08 00:01:05;;;;;;;6.28;1.80;;;;;;;15.13;68.67;101125.53;7396012;19;20487;-58
2023/08/08 00:03:34;;;;;;;7.22;2.20;;;;;;;15.11;68.73;101115.03;7395737;19;20017;-59
2023/08/08 00:06:01;;;;;;;6.65;2.03;;;;;;;15.04;68.96;101120.03;7395105;19;20022;-62
2023/08/08 00:08:29;;;;;;;5.93;1.80;;;;;;;15.03;69.57;101123.69;7394731;19;20019;-61
2023/08/08 00:10:56;;;;;;;5.30;2.10;;;;;;;15.06;69.39;101117.22;7393541;19;20023;-62
2023/08/08 00:13:24;;;;;;;5.88;1.90;;;;;;;15.04;69.59;101120.03;7395098;19;20558;-62
2023/08/08 00:15:51;;;;;;;5.90;2.10;;;;;;;15.05;69.55;101116.38;7395043;19;20026;-59
2023/08/08 00:18:18;;;;;;;7.80;2.00;;;;;;;15.02;69.68;101118.47;7393225;19;20381;-64
2023/08/08 00:20:46;;;;;;;5.93;1.92;;;;;;;15.06;69.70;101118.06;7394618;19;20018;-61
2023/08/08 00:23:13;;;;;;;5.85;2.03;;;;;;;15.09;69.49;101125.81;7391587;19;20015;-60
2023/08/08 00:25:40;;;;;;;7.05;2.13;;;;;;;15.11;69.75;101125.69;7394209;19;20105;-61
2023/08/08 00:28:08;;;;;;;5.63;2.20;;;;;;;15.04;69.71;101129.88;7395167;19;20100;-63
2023/08/08 00:30:35;;;;;;;4.78;1.88;;;;;;;15.06;70.13;101125.22;7393406;19;20014;-64
2023/08/08 00:33:03;;;;;;;4.75;2.00;;;;;;;14.99;70.41;101122.25;7392797;19;20043;-61
2023/08/08 00:35:30;;;;;;;6.32;2.10;;;;;;;15.01;70.17;101120.28;7394192;19;20029;-59
2023/08/08 00:37:58;;;;;;;6.10;1.88;;;;;;;15.07;70.27;101125.13;7394616;19;20025;-58
2023/08/08 00:40:25;;;;;;;7.38;2.03;;;;;;;15.04;70.48;101113.88;7393020;19;20015;-61
2023/08/08 00:42:52;;;;;;;6.80;2.28;;;;;;;15.05;70.45;101120.88;7392928;19;20471;-57
2023/08/08 00:45:20;;;;;;;5.22;1.90;;;;;;;15.01;70.78;101112.28;7393979;19;20035;-63
2023/08/08 00:47:47;;;;;;;7.15;2.40;;;;;;;14.91;71.13;101102.56;7393392;19;20018;-59
2023/08/08 00:50:15;;;;;;;8.32;2.45;;;;;;;15.00;71.00;101110.63;7387973;19;20487;-59
2023/08/08 00:52:43;;;;;;;4.50;1.60;;;;;;;14.98;71.28;101109.03;7390598;19;20044;-59
2023/08/08 00:55:11;;;;;;;8.15;2.00;;;;;;;14.97;71.39;101108.22;7392798;19;20018;-59
2023/08/08 00:57:40;;;;;;;5.88;2.08;;;;;;;14.99;71.41;101094.72;7392393;19;20082;-59
2023/08/08 01:00:09;;;;;;;5.97;2.10;;;;;;;14.97;71.37;101097.53;7392089;19;20035;-60
2023/08/08 01:02:38;;;;;;;7.68;2.22;;;;;;;14.96;71.40;101101.19;7392531;19;20022;-59
2023/08/08 01:05:07;;;;;;;7.90;1.80;;;;;;;15.00;71.20;101101.78;7397228;19;20015;-59
2023/08/08 01:07:54;;;;;;;6.00;1.83;;;;;;;15.06;71.32;101094.06;7393539;19;20019;-58
2023/08/08 01:10:29;;;;;;;7.55;2.03;;;;;;;15.09;71.19;101088.47;7393086;19;20487;-59
2023/08/08 01:13:02;;;;;;;4.85;2.00;;;;;;;15.10;71.28;101097.31;7392190;19;20036;-59
2023/08/08 01:15:35;;;;;;;7.10;1.73;;;;;;;15.05;71.58;101102.22;7392842;19;20010;-59
2023/08/08 01:18:07;;;;;;;10.05;2.42;;;;;;;15.06;71.72;101093.22;7393642;19;20018;-60
2023/08/08 01:20:37;;;;;;;6.90;2.25;;;;;;;15.02;71.95;101089.97;7391984;19;20021;-60
2023/08/08 01:23:33;;;;;;;8.60;2.10;;;;;;;15.09;71.90;101082.28;7391472;19;20563;-60
2023/08/08 01:26:01;;;;;;;5.55;2.15;;;;;;;15.10;71.80;101090.16;7392109;19;20039;-59
2023/08/08 01:28:28;;;;;;;7.13;2.33;;;;;;;15.06;71.92;101075.38;7391096;19;20668;-61
2023/08/08 01:30:55;;;;;;;4.30;1.88;;;;;;;15.08;71.93;101078.78;7391623;19;20476;-61
2023/08/08 01:33:23;;;;;;;5.80;2.10;;;;;;;15.09;71.80;101085.78;7392987;19;20043;-61
2023/08/08 01:35:55;;;;;;;7.00;2.10;;;;;;;15.08;72.16;101088.59;7392369;19;20018;-61
2023/08/08 01:38:28;;;;;;;7.47;2.15;;;;;;;15.10;72.20;101089.31;7392563;19;20018;-60
2023/08/08 01:40:57;;;;;;;9.82;2.35;;;;;;;15.11;72.06;101085.69;7392625;19;20031;-60
2023/08/08 01:43:26;;;;;;;9.18;2.30;;;;;;;15.12;72.21;101079.34;7392563;19;20022;-61
2023/08/08 01:45:54;;;;;;;6.28;2.17;;;;;;;15.20;72.07;101087.53;7391775;19;20022;-60
2023/08/08 01:48:21;;;;;;;6.47;2.20;;;;;;;15.22;71.97;101085.56;7392371;19;20030;-60
2023/08/08 01:50:49;;;;;;;7.20;2.40;;;;;;;15.22;71.96;101090.88;7390930;19;20031;-60
2023/08/08 01:53:16;;;;;;;6.40;2.20;;;;;;;15.23;72.25;101089.09;7390392;19;20023;-60
2023/08/08 01:55:43;;;;;;;6.18;2.00;;;;;;;15.33;71.66;101079.28;7391296;19;20018;-60
2023/08/08 01:58:11;;;;;;;4.47;2.20;;;;;;;15.32;71.94;101083.78;7391983;19;20010;-59
2023/08/08 02:00:40;;;;;;;6.75;2.28;;;;;;;15.35;71.72;101082.66;7391277;19;20014;-58
2023/08/08 02:03:08;;;;;;;6.70;2.05;;;;;;;15.42;71.72;101088.31;7389523;19;20022;-59
2023/08/08 02:05:35;;;;;;;6.93;2.22;;;;;;;15.42;71.86;101080.31;7391531;19;20030;-59
2023/08/08 02:08:03;;;;;;;7.03;1.98;;;;;;;15.41;71.60;101076.75;7390459;19;20022;-58
2023/08/08 02:10:31;;;;;;;4.90;2.05;;;;;;;15.40;71.55;101071.56;7391339;19;20018;-58
2023/08/08 02:12:58;;;;;;;4.85;2.25;;;;;;;15.42;71.51;101069.63;7390099;19;20483;-59
2023/08/08 02:15:27;;;;;;;7.25;2.03;;;;;;;15.33;71.87;101071.25;7391415;19;20033;-59
2023/08/08 02:17:55;;;;;;;5.35;2.25;;;;;;;15.32;71.88;101061.59;7391547;19;20022;-59
2023/08/08 02:20:22;;;;;;;7.18;2.30;;;;;;;15.36;71.79;101063.00;7391023;19;20101;-59
2023/08/08 02:22:50;;;;;;;6.20;2.40;;;;;;;15.34;71.71;101067.66;7390164;19;20021;-59
2023/08/08 02:25:17;;;;;;;4.20;2.10;;;;;;;15.23;72.12;101063.25;7391023;19;20018;-59
2023/08/08 02:27:45;;;;;;;6.05;2.50;;;;;;;15.28;72.12;101070.84;7390640;19;20774;-59
2023/08/08 02:30:13;;;;;;;7.80;2.70;;;;;;;15.31;71.92;101059.91;7390806;19;20472;-60
2023/08/08 02:32:40;;;;;;;5.35;2.38;;;;;;;15.36;71.87;101063.84;7389698;19;20043;-60
2023/08/08 02:35:08;;;;;;;7.13;2.72;;;;;;;15.30;72.24;101066.19;7389581;19;20033;-60
2023/08/08 02:37:35;;;;;;;5.05;2.40;;;;;;;15.33;72.31;101071.25;7390234;19;20495;-60
2023/08/08 02:40:04;;;;;;;8.75;2.30;;;;;;;15.32;72.43;101070.44;7391154;19;20047;-60
2023/08/08 02:42:32;;;;;;;6.00;2.58;;;;;;;15.39;72.38;101059.22;7389690;19;20018;-58
2023/08/08 02:44:59;;;;;;;6.78;3.00;;;;;;;15.34;72.35;101051.63;7390900;19;20074;-59
2023/08/08 02:47:26;;;;;;;4.70;2.55;;;;;;;15.31;72.45;101052.75;7389812;19;20019;-59
2023/08/08 02:49:54;;;;;;;6.20;2.88;;;;;;;15.29;72.69;101049.34;7391264;19;20054;-60
2023/08/08 02:52:21;;;;;;;5.97;2.60;;;;;;;15.27;72.59;101037.97;7388846;19;20043;-58
2023/08/08 02:54:49;;;;;;;6.10;2.85;;;;;;;15.27;72.70;101037.16;7390211;19;20018;-57
2023/08/08 02:57:16;;;;;;;8.23;3.05;;;;;;;15.23;72.87;101033.91;7388128;19;20024;-58
2023/08/08 02:59:43;;;;;;;5.85;2.80;;;;;;;15.25;72.98;101039.94;7391104;19;20492;-58
2023/08/08 03:02:11;;;;;;;6.28;3.10;;;;;;;15.20;73.17;101034.16;7389069;19;20023;-58
2023/08/08 03:04:38;;;;;;;6.68;2.90;;;;;;;15.24;72.82;101029.41;7393866;19;20081;-59
2023/08/08 03:07:06;;;;;;;5.50;2.25;;;;;;;15.22;73.01;101034.03;7389783;19;20028;-59
2023/08/08 03:09:33;;;;;;;8.75;2.83;;;;;;;15.26;73.06;101030.09;7388960;19;20047;-59
2023/08/08 03:12:00;;;;;;;7.00;2.97;;;;;;;15.32;72.97;101022.41;7388079;19;20102;-59
2023/08/08 03:14:29;;;;;;;6.82;2.50;;;;;;;15.38;72.71;101023.69;7395010;19;20040;-59
2023/08/08 03:16:56;;;;;;;6.72;2.90;;;;;;;15.31;72.97;101018.03;7396643;19;20023;-58
2023/08/08 03:19:26;;;;;;;7.03;2.72;;;;;;;15.32;73.18;101017.06;7397604;19;20018;-59
2023/08/08 03:21:53;;;;;;;8.00;3.00;;;;;;;15.33;73.00;101012.56;7395974;19;20014;-59
2023/08/08 03:24:20;;;;;;;7.20;3.10;;;;;;;15.34;73.09;101016.94;7397287;19;20028;-59
2023/08/08 03:26:48;;;;;;;5.10;2.63;;;;;;;15.32;73.42;101013.56;7396064;19;20022;-58
2023/08/08 03:29:15;;;;;;;7.20;2.90;;;;;;;15.26;73.49;101009.63;7396572;19;20014;-58
2023/08/08 03:31:42;;;;;;;7.20;3.10;;;;;;;15.28;73.44;101012.97;7395345;19;20249;-59
2023/08/08 03:34:10;;;;;;;8.73;3.28;;;;;;;15.29;73.42;101011.16;7396306;19;20018;-59
2023/08/08 03:36:37;;;;;;;6.50;3.13;;;;;;;15.23;73.67;101011.72;7396699;19;20090;-60
2023/08/08 03:39:08;;;;;;;9.30;3.33;;;;;;;15.25;73.71;101005.25;7394943;19;20018;-60
2023/08/08 03:41:36;;;;;;;7.05;3.13;;;;;;;15.30;73.64;101008.38;7395516;19;20019;-60
2023/08/08 03:44:04;;;;;;;7.18;3.03;;;;;;;15.33;73.66;101008.06;7396763;19;20035;-58
2023/08/08 03:46:31;;;;;;;5.65;2.75;;;;;;;15.36;73.45;101014.97;7395866;19;20468;-59
2023/08/08 03:48:58;;;;;;;7.07;3.28;;;;;;;15.39;73.56;101012.03;7395123;19;20555;-59
2023/08/08 03:51:26;;;;;;;7.53;2.97;;;;;;;15.42;73.36;101006.41;7395027;19;20106;-59
2023/08/08 03:53:53;;;;;;;8.65;3.30;;;;;;;15.35;73.55;101003.44;7395918;19;20023;-59
2023/08/08 03:56:20;;;;;;;7.90;3.20;;;;;;;15.34;74.03;100992.91;7394894;19;20043;-59
2023/08/08 03:58:48;;;;;;;8.15;3.22;;;;;;;15.39;73.75;100992.50;7396399;19;20349;-58
2023/08/08 04:01:15;;;;;;;7.25;2.95;;;;;;;15.42;73.65;100994.91;7395022;19;20022;-58
2023/08/08 04:03:42;;;;;;;8.93;3.25;;;;;;;15.45;73.72;100999.94;7397099;19;20010;-58
2023/08/08 04:06:10;;;;;;;7.97;3.10;;;;;;;15.53;73.21;101002.75;7394692;19;20409;-58
2023/08/08 04:08:37;;;;;;;7.03;3.05;;;;;;;15.48;73.77;100997.84;7395890;19;20039;-60
2023/08/08 04:11:04;;;;;;;5.32;2.75;;;;;;;15.44;73.83;101000.94;7394479;19;20487;-60
2023/08/08 04:13:32;;;;;;;7.22;3.45;;;;;;;15.49;73.71;101006.69;7395646;19;20086;-58
2023/08/08 04:16:00;;;;;;;6.28;2.70;;;;;;;15.52;73.79;101009.09;7393303;19;20025;-59
2023/08/08 04:18:28;;;;;;;5.88;2.75;;;;;;;15.58;73.56;101006.72;7395573;19;20026;-59
2023/08/08 04:20:55;;;;;;;6.50;3.10;;;;;;;15.57;73.84;101009.53;7394037;19;20018;-60
2023/08/08 04:23:25;;;;;;;6.82;2.95;;;;;;;15.56;74.08;100994.47;7395148;19;20022;-60
2023/08/08 04:25:53;;;;;;;6.28;3.15;;;;;;;15.65;73.91;101012.38;7394184;19;20127;-59
2023/08/08 04:28:20;;;;;;;8.15;3.22;;;;;;;15.65;73.94;101000.81;7395361;19;20014;-59
2023/08/08 04:30:48;;;;;;;11.23;4.07;;;;;;;15.65;73.47;100991.00;7394566;19;20562;-60
2023/08/08 04:33:15;;;;;;;8.45;3.63;;;;;;;15.71;73.67;100989.59;7392436;19;20011;-60
2023/08/08 04:35:42;;;;;;;11.75;3.40;;;;;;;15.76;73.36;100982.03;7394223;19;20052;-60
2023/08/08 04:38:10;;;;;;;8.93;3.42;;;;;;;15.81;73.40;100974.41;7393139;19;20015;-60
2023/08/08 04:40:37;;;;;;;9.27;3.60;;;;;;;15.81;73.30;100974.41;7394231;19;20094;-59
2023/08/08 04:43:05;;;;;;;7.28;2.95;;;;;;;15.79;73.62;100971.88;7392538;19;20098;-61
2023/08/08 04:45:33;;;;;;;8.80;3.05;;;;;;;15.71;73.81;100978.91;7393931;19;20035;-61
2023/08/08 04:48:00;;;;;;;8.68;3.13;;;;;;;15.62;74.15;100975.25;7394230;19;20527;-60
2023/08/08 04:50:28;;;;;;;7.32;2.72;;;;;;;15.70;74.02;100980.75;7394044;19;20049;-60
2023/08/08 04:52:55;;;;;;;5.97;2.60;;;;;;;15.75;73.83;100980.31;7392680;19;20032;-60
2023/08/08 04:55:23;;;;;;;8.50;3.00;;;;;;;15.74;73.84;100975.97;7393952;19;20026;-60
2023/08/08 04:57:50;;;;;;;7.32;3.08;;;;;;;15.70;73.93;100972.72;7393421;19;20014;-59
2023/08/08 05:00:18;;;;;;;6.40;2.85;;;;;;;15.77;73.79;100973.84;7391883;19;20495;-60
2023/08/08 05:02:45;;;;;;;6.13;2.72;;;;;;;15.77;73.87;100973.03;7391049;19;20018;-59
2023/08/08 05:05:12;;;;;;;5.97;2.88;;;;;;;15.80;73.94;100973.59;7397786;19;20030;-59
2023/08/08 05:07:41;;;;;;;7.75;3.05;;;;;;;15.74;74.02;100957.28;7393368;19;20070;-59
2023/08/08 05:10:08;;;;;;;7.82;3.25;;;;;;;15.80;73.73;100970.91;7393286;19;20090;-59
2023/08/08 05:12:35;;;;;;;10.55;3.05;;;;;;;15.77;73.79;100965.84;7391959;19;20018;-59
2023/08/08 05:15:03;;;;;;;6.00;2.55;;;;;;;15.79;73.54;100971.03;7393519;19;20029;-59
2023/08/08 05:17:33;;;;;;;8.35;3.05;;;;;;;15.80;73.78;100980.75;7392464;19;20014;-59
2023/08/08 05:20:01;;;;;;;5.90;2.78;;;;;;;15.83;73.63;100972.44;7393703;19;20010;-59
2023/08/08 05:22:28;;;;;;;6.88;2.80;;;;;;;15.83;73.62;100967.97;7390580;19;20052;-59
2023/08/08 05:24:56;;;;;;;10.52;2.60;;;;;;;15.89;73.18;100969.22;7392850;19;20010;-60
2023/08/08 05:27:23;;;;;;;6.50;2.50;;;;;;;15.96;73.21;100969.50;7392496;19;20018;-59
2023/08/08 05:29:51;;;;;;;6.55;2.53;;;;;;;15.95;73.21;100965.97;7393291;19;20047;-59
2023/08/08 05:32:18;;;;;;;7.55;3.03;;;;;;;15.97;73.13;100964.00;7391753;19;20036;-59
2023/08/08 05:34:45;;;;;;;7.55;2.50;;;;;;;15.91;73.50;100961.03;7393038;19;20028;-59
2023/08/08 05:37:12;;;;;;;6.07;2.67;;;;;;;15.95;73.32;100968.66;7390272;19;20321;-60
2023/08/08 05:39:44;;;;;;;7.60;2.78;;;;;;;15.97;73.34;100963.16;7393066;19;20041;-60
2023/08/08 05:42:12;;;;;;;10.05;2.80;;;;;;;15.99;73.27;100962.03;7389842;19;20022;-60
2023/08/08 05:44:41;;;;;;;8.65;3.15;;;;;;;15.95;73.35;100968.66;7392444;19;20015;-59
2023/08/08 05:47:09;;;;;;;8.80;2.70;;;;;;;15.95;73.28;100965.09;7392121;19;20018;-60
2023/08/08 05:49:38;;;;;;;5.50;2.60;;;;;;;15.96;73.32;100965.00;7392871;19;20018;-59
2023/08/08 05:52:06;;;;;;;7.13;2.78;;;;;;;15.97;73.40;100960.47;7391534;19;20090;-59
2023/08/08 05:54:33;;;;;;;7.53;3.00;;;;;;;16.04;73.14;100965.09;7392574;19;20018;-59
2023/08/08 05:57:04;;;;;;;8.43;3.10;;;;;;;16.08;72.83;100966.50;7391053;19;20060;-61
2023/08/08 05:59:31;;;;;;;10.63;2.70;;;;;;;16.10;72.70;100971.69;7391450;19;20038;-60
2023/08/08 06:01:59;;;;;;;9.70;2.80;;;;;;;16.07;72.80;100961.31;7392311;19;20019;-60
2023/08/08 06:04:27;;;;;;;10.23;3.15;;;;;;;16.09;72.52;100962.00;7392862;19;20044;-60
2023/08/08 06:06:54;;;;;;;8.00;2.67;;;;;;;16.17;72.50;100970.13;7388285;19;20025;-60
2023/08/08 06:09:22;;;;;;;6.97;2.70;;;;;;;16.18;72.58;100962.97;7392139;19;20403;-60
2023/08/08 06:11:49;;;;;;;8.32;2.78;;;;;;;16.16;72.77;100963.13;7389237;19;20513;-60
2023/08/08 06:14:17;;;;;;;10.07;3.13;;;;;;;16.19;72.14;100954.81;7391930;19;20052;-60
2023/08/08 06:16:46;;;;;;;7.93;2.70;;;;;;;16.16;72.22;100963.13;7389627;19;20019;-60
2023/08/08 06:19:15;;;;;;;8.73;2.80;;;;;;;16.25;71.92;100956.91;7389984;19;20089;-60
2023/08/08 06:21:43;;;;;;;7.78;2.47;;;;;;;16.26;71.78;100957.75;7389990;19;20373;-60
2023/08/08 06:24:10;;;;;;;5.55;2.35;;;;;;;16.23;71.67;100960.72;7391824;19;20093;-60
2023/08/08 06:26:37;;;;;;;8.15;2.45;;;;;;;16.15;71.91;100966.78;7389010;19;20047;-60
2023/08/08 06:29:05;;;;;;;8.68;2.70;;;;;;;16.20;71.79;100958.31;7391954;19;20023;-60
2023/08/08 06:31:32;;;;;;;7.07;2.60;;;;;;;16.15;71.92;100952.59;7390601;19;20036;-59
2023/08/08 06:34:00;;;;;;;8.38;2.10;;;;;;;16.17;72.14;100959.44;7391301;19;20023;-59
2023/08/08 06:36:27;;;;;;;8.13;2.70;;;;;;;16.15;72.01;100960.59;7387448;19;20101;-60
2023/08/08 06:38:54;;;;;;;8.15;2.40;;;;;;;16.20;71.79;100961.00;7391341;19;20015;-60
2023/08/08 06:41:22;;;;;;;9.43;2.67;;;;;;;16.22;71.73;100954.53;7390825;19;20014;-59
2023/08/08 06:43:49;;;;;;;6.82;2.40;;;;;;;16.25;71.39;100967.59;7388949;19;20010;-59
2023/08/08 06:46:16;;;;;;;6.50;2.08;;;;;;;16.23;71.28;100966.06;7389006;19;20086;-60
2023/08/08 06:48:45;;;;;;;8.68;2.20;;;;;;;16.24;71.18;100967.75;7396313;19;20018;-60
2023/08/08 06:51:13;;;;;;;9.50;2.20;;;;;;;16.26;71.07;100961.28;7397806;19;20524;-60
2023/08/08 06:53:40;;;;;;;8.68;2.00;;;;;;;16.35;70.76;100970.25;7394325;19;20022;-60
2023/08/08 06:56:08;;;;;;;5.75;2.10;;;;;;;16.53;70.31;100973.00;7396455;19;20015;-59
2023/08/08 06:58:35;;;;;;;8.15;2.30;;;;;;;16.76;69.51;100970.84;7396395;19;20512;-57
2023/08/08 07:01:02;;;;;;;4.38;1.70;;;;;;;16.92;68.79;100970.19;7398412;19;20090;-58
2023/08/08 07:03:30;;;;;;;5.70;1.83;;;;;;;16.96;68.48;100977.75;7397213;19;20086;-59
2023/08/08 07:05:57;;;;;;;5.32;2.22;;;;;;;16.98;68.50;100964.22;7394653;19;20024;-59
2023/08/08 07:08:25;;;;;;;8.15;2.10;;;;;;;16.91;68.40;100952.47;7395984;19;20022;-58
2023/08/08 07:10:52;;;;;;;6.57;1.95;;;;;;;16.80;68.10;100953.50;7397695;19;20082;-58
2023/08/08 07:13:22;;;;;;;7.00;1.90;;;;;;;16.77;68.05;100949.28;7395432;19;20019;-58
2023/08/08 07:15:50;;;;;;;7.05;1.65;;;;;;;16.84;67.70;100949.53;7394354;19;20014;-59
2023/08/08 07:18:17;;;;;;;9.43;1.90;;;;;;;17.01;67.10;100948.72;7396868;19;20019;-58
2023/08/08 07:20:45;;;;;;;5.75;1.52;;;;;;;17.16;67.24;100938.34;7397274;19;20358;-58
2023/08/08 07:23:12;;;;;;;6.32;1.80;;;;;;;17.33;66.61;100941.19;7397797;19;20015;-58
2023/08/08 07:25:39;;;;;;;4.28;1.70;;;;;;;17.38;66.43;100938.91;7395387;19;20022;-58
2023/08/08 07:28:07;;;;;;;7.97;1.95;;;;;;;17.36;66.65;100949.78;7397193;19;20014;-59
2023/08/08 07:30:35;;;;;;;5.35;1.48;;;;;;;17.33;66.43;100942.03;7397066;19;20022;-58
2023/08/08 07:33:02;;;;;;;5.65;1.45;;;;;;;17.32;65.85;100945.69;7395620;19;20515;-58
2023/08/08 07:35:30;;;;;;;6.13;1.45;;;;;;;17.39;65.23;100937.91;7395730;19;20047;-58
2023/08/08 07:37:57;;;;;;;5.45;1.40;;;;;;;17.22;65.49;100932.41;7396969;19;20484;-58
2023/08/08 07:40:24;;;;;;;10.80;1.88;;;;;;;17.10;66.08;100944.31;7397017;19;20018;-57
2023/08/08 07:42:52;;;;;;;5.32;1.60;;;;;;;17.01;66.47;100953.22;7395036;19;20014;-58
2023/08/08 07:45:19;;;;;;;4.25;1.50;;;;;;;16.95;66.93;100930.59;7396007;19;20019;-58
2023/08/08 07:47:47;;;;;;;5.90;1.55;;;;;;;16.91;67.21;100945.28;7395640;19;20029;-58
2023/08/08 07:50:14;;;;;;;7.68;1.52;;;;;;;16.88;67.22;100939.38;7396483;19;20170;-58
2023/08/08 07:52:42;;;;;;;6.13;1.52;;;;;;;16.89;67.34;100944.56;7394746;19;20014;-59
2023/08/08 07:55:09;;;;;;;4.65;1.67;;;;;;;16.92;67.18;100940.75;7396192;19;20010;-59
2023/08/08 07:57:37;;;;;;;5.35;1.88;;;;;;;17.00;66.99;100954.22;7395489;19;20074;-58
2023/08/08 08:00:12;;;;;;;5.60;1.60;;;;;;;17.05;67.96;100949.25;7395045;19;20527;-59
2023/08/08 08:02:41;;;;;;;7.03;1.55;;;;;;;17.05;68.81;100935.88;7395639;19;20018;-59
2023/08/08 08:05:09;;;;;;;9.82;1.60;;;;;;;17.11;68.89;100932.59;7399747;19;20015;-59
2023/08/08 08:07:38;;;;;;;10.13;1.88;;;;;;;17.19;69.21;100935.38;7395192;19;20015;-58
2023/08/08 08:10:08;;;;;;;7.30;1.88;;;;;;;17.32;69.12;100934.16;7395601;19;20023;-58
2023/08/08 08:12:41;;;;;;;6.88;1.60;;;;;;;17.34;69.02;100918.78;7394525;19;20026;-57
2023/08/08 08:15:09;;;;;;;8.70;1.33;;;;;;;17.35;68.56;100933.84;7395068;19;20043;-57
2023/08/08 08:17:36;;;;;;;5.85;1.48;;;;;;;17.52;68.21;100928.50;7395148;19;20086;-58
2023/08/08 08:20:08;;;;;;;5.05;1.45;;;;;;;17.55;67.28;100932.69;7393636;19;20380;-58
2023/08/08 08:22:37;;;;;;;4.28;1.65;;;;;;;17.58;67.49;100924.34;7395317;19;20500;-58
2023/08/08 08:25:08;;;;;;;6.78;1.27;;;;;;;17.71;67.01;100926.66;7394878;19;20039;-59
2023/08/08 08:27:36;;;;;;;6.15;1.48;;;;;;;17.71;66.53;100922.13;7392898;19;20011;-59
2023/08/08 08:30:06;;;;;;;6.65;1.70;;;;;;;17.66;65.96;100931.59;7394991;19;20029;-58
2023/08/08 08:32:34;;;;;;;7.95;1.50;;;;;;;17.60;64.73;100930.41;7392520;19;20021;-58
2023/08/08 08:35:03;;;;;;;5.30;1.20;;;;;;;17.68;64.24;100917.06;7394670;19;20021;-59
2023/08/08 08:37:31;;;;;;;3.40;1.27;;;;;;;17.74;63.92;100915.59;7391928;19;20026;-59
2023/08/08 08:39:58;;;;;;;5.65;1.23;;;;;;;17.90;63.76;100915.78;7394252;19;20042;-59
2023/08/08 08:42:31;;;;;;;6.18;1.60;;;;;;;17.95;62.96;100900.06;7395026;19;20026;-59
2023/08/08 08:44:59;;;;;;;5.63;1.50;;;;;;;17.95;63.43;100912.63;7395108;19;20015;-59
2023/08/08 08:47:30;;;;;;;6.57;1.30;;;;;;;18.07;62.58;100903.31;7391305;19;20010;-59
2023/08/08 08:49:58;;;;;;;5.20;1.20;;;;;;;18.13;62.81;100905.38;7394661;19;20018;-58
2023/08/08 08:52:26;;;;;;;6.03;1.27;;;;;;;18.15;62.41;100900.66;7393949;19;20027;-58
2023/08/08 08:54:53;;;;;;;4.70;1.42;;;;;;;18.36;61.15;100900.28;7392323;19;20052;-58
2023/08/08 08:57:23;;;;;;;6.85;1.30;;;;;;;18.40;60.41;100887.41;7391529;19;20019;-58
2023/08/08 08:59:51;;;;;;;5.53;1.20;;;;;;;18.25;59.71;100900.56;7394759;19;20043;-58
2023/08/08 09:02:19;;;;;;;6.78;1.23;;;;;;;17.98;59.84;100891.72;7393211;19;20014;-58
2023/08/08 09:04:46;;;;;;;6.50;1.20;;;;;;;17.89;60.43;100900.66;7397373;19;20417;-58
2023/08/08 09:07:16;;;;;;;3.47;1.10;;;;;;;17.76;61.35;100900.25;7391712;19;20047;-58
2023/08/08 09:09:43;;;;;;;5.68;1.38;;;;;;;17.63;62.29;100910.47;7393990;19;20022;-58
2023/08/08 09:12:12;;;;;;;4.78;1.00;;;;;;;17.48;62.53;100903.03;7391173;19;20039;-58
2023/08/08 09:14:41;;;;;;;3.65;1.08;;;;;;;17.58;61.80;100891.38;7392151;19;20015;-59
2023/08/08 09:17:13;;;;;;;5.50;0.90;;;;;;;17.76;61.58;100893.06;7389807;19;20022;-58
2023/08/08 09:19:45;;;;;;;4.80;1.33;;;;;;;17.93;61.20;100883.31;7394317;19;20500;-63
2023/08/08 09:22:13;;;;;;;6.43;1.17;;;;;;;18.14;59.63;100890.97;7393864;19;20022;-63
2023/08/08 09:24:42;;;;;;;3.33;0.90;;;;;;;18.34;58.27;100885.38;7391003;19;20015;-59
2023/08/08 09:27:12;;;;;;;6.03;1.10;;;;;;;18.27;58.71;100883.31;7391073;19;20039;-60
2023/08/08 09:29:41;;;;;;;6.97;1.20;;;;;;;18.20;58.51;100878.75;7393477;19;20043;-61
2023/08/08 09:32:09;;;;;;;4.68;1.10;;;;;;;18.34;58.14;100888.88;7392626;19;20018;-61
2023/08/08 09:34:36;;;;;;;4.53;0.90;;;;;;;18.34;58.51;100888.88;7390910;19;20044;-60
2023/08/08 09:37:06;;;;;;;4.05;1.20;;;;;;;18.33;58.03;100867.59;7390744;19;20015;-61
2023/08/08 09:39:33;;;;;;;6.80;1.10;;;;;;;18.32;57.91;100877.50;7391993;19;20022;-61
2023/08/08 09:42:03;;;;;;;4.40;0.95;;;;;;;18.36;57.02;100873.47;7392339;19;20026;-60
2023/08/08 09:44:34;;;;;;;5.15;1.17;;;;;;;18.44;57.13;100881.56;7392548;19;20030;-61
2023/08/08 09:47:02;;;;;;;3.08;1.00;;;;;;;18.48;56.40;100877.56;7390082;19;20014;-61
2023/08/08 09:49:34;;;;;;;4.30;1.02;;;;;;;18.53;56.11;100871.69;7392435;19;20023;-61
2023/08/08 09:52:02;;;;;;;3.13;1.00;;;;;;;18.69;56.31;100876.28;7391699;19;20119;-60
2023/08/08 09:54:30;;;;;;;3.45;1.00;;;;;;;18.88;55.73;100872.50;7390951;19;20043;-61
2023/08/08 09:56:59;;;;;;;4.60;1.00;;;;;;;18.75;56.46;100868.44;7389403;19;20048;-61
2023/08/08 09:59:27;;;;;;;4.05;1.00;;;;;;;18.61;56.68;100870.88;7392146;19;20022;-61
2023/08/08 10:01:55;;;;;;;5.18;0.98;;;;;;;18.53;57.16;100885.09;7391665;19;20014;-60
2023/08/08 10:04:23;;;;;;;10.85;1.40;;;;;;;18.34;60.73;100890.72;7394392;19;20011;-61
2023/08/08 10:06:51;;;;;;;6.32;1.13;;;;;;;18.27;62.42;100883.31;7390073;19;20059;-60
2023/08/08 10:09:19;;;;;;;9.25;1.30;;;;;;;18.19;63.10;100883.28;7391740;19;20047;-61
2023/08/08 10:11:48;;;;;;;11.00;1.48;;;;;;;18.31;63.00;100883.81;7391830;19;20014;-61
2023/08/08 10:14:15;;;;;;;4.50;1.10;;;;;;;18.30;62.09;100894.72;7390294;19;20048;-61
2023/08/08 10:16:46;;;;;;;5.13;1.10;;;;;;;18.35;61.97;100873.63;7387553;19;20026;-61
2023/08/08 10:19:13;;;;;;;4.72;1.00;;;;;;;18.58;61.67;100880.09;7390971;19;20010;-61
2023/08/08 10:21:45;;;;;;;3.90;0.88;;;;;;;18.60;60.37;100878.09;7391134;19;20071;-61
2023/08/08 10:24:13;;;;;;;3.53;1.10;;;;;;;18.55;60.58;100880.44;7390950;19;20048;-60
2023/08/08 10:26:54;;;;;;;4.93;1.02;;;;;;;18.82;57.43;100892.78;7387378;19;20045;-60
2023/08/08 10:29:26;;;;;;;4.78;1.10;;;;;;;18.88;56.91;100862.59;7389290;19;20483;-60
2023/08/08 10:32:01;;;;;;;4.50;0.90;;;;;;;18.94;56.67;100882.59;7391315;19;20058;-61
2023/08/08 10:34:41;;;;;;;4.88;0.80;;;;;;;19.06;56.03;100867.84;7389515;19;20014;-61
2023/08/08 10:37:11;;;;;;;4.55;1.10;;;;;;;19.12;56.08;100885.16;7387364;19;20029;-60
2023/08/08 10:40:11;;;;;;;5.32;0.90;;;;;;;19.06;54.73;100865.16;7394559;19;20363;-61
2023/08/08 10:42:43;;;;;;;4.35;0.85;;;;;;;18.90;55.45;100873.19;7388165;19;20338;-60
2023/08/08 10:45:16;;;;;;;4.85;0.88;;;;;;;18.77;56.02;100878.16;7391019;19;20024;-60
2023/08/08 10:47:45;;;;;;;2.67;0.80;;;;;;;18.98;55.85;100881.25;7390133;19;20044;-60
2023/08/08 10:50:15;;;;;;;4.57;1.00;;;;;;;19.26;54.76;100860.31;7390752;19;20044;-60
2023/08/08 10:52:54;;;;;;;6.23;1.13;;;;;;;19.29;53.90;100859.16;7388506;19;20015;-60
2023/08/08 10:55:36;;;;;;;4.97;1.10;;;;;;;19.22;54.80;100875.91;7390166;19;20018;-62
2023/08/08 10:58:10;;;;;;;3.28;0.90;;;;;;;19.02;55.48;100885.28;7390265;19;20508;-61
2023/08/08 11:00:39;;;;;;;3.53;1.00;;;;;;;18.92;56.94;100890.78;7390646;19;20021;-61
2023/08/08 11:03:08;;;;;;;4.95;1.10;;;;;;;18.70;59.16;100884.22;7388157;19;20102;-61
2023/08/08 11:05:37;;;;;;;2.75;0.90;;;;;;;18.72;59.62;100874.13;7387584;19;20015;-61
2023/08/08 11:08:06;;;;;;;2.63;0.73;;;;;;;18.77;59.80;100894.28;7389866;19;20051;-61
2023/08/08 11:10:41;;;;;;;2.83;0.70;;;;;;;18.94;58.30;100893.31;7390038;19;20010;-62
2023/08/08 11:13:09;;;;;;;4.70;0.80;;;;;;;19.03;56.91;100892.31;7389980;19;20018;-61
2023/08/08 11:15:37;;;;;;;1.20;0.70;;;;;;;18.93;57.43;100894.34;7388164;19;20026;-61
2023/08/08 11:18:06;;;;;;;2.67;0.77;;;;;;;18.71;57.58;100877.84;7389790;19;20014;-63
2023/08/08 11:20:35;;;;;;;3.30;0.90;;;;;;;18.73;58.14;100883.03;7389631;19;20026;-61
2023/08/08 11:23:05;;;;;;;3.20;0.90;;;;;;;18.63;58.88;100875.09;7390001;19;20022;-62
2023/08/08 11:25:33;;;;;;;3.95;0.90;;;;;;;18.54;60.18;100889.47;7386679;19;20043;-62
2023/08/08 11:28:00;;;;;;;4.38;0.90;;;;;;;18.47;60.28;100897.34;7389254;19;20491;-62
2023/08/08 11:30:32;;;;;;;10.85;1.30;;;;;;;18.62;59.53;100900.25;7389455;19;20015;-62